createdAt,value
2016-04-21T00:00:57.430Z,20.8
2016-04-21T00:01:55.414Z,20.8
2016-04-21T00:02:53.448Z,20.7
2016-04-21T00:03:51.467Z,20.7
2016-04-21T00:04:49.860Z,20.7
2016-04-21T00:05:48.034Z,20.7
2016-04-21T00:06:46.380Z,20.7
2016-04-21T00:07:47.399Z,20.7
2016-04-21T00:08:45.699Z,20.7
2016-04-21T00:09:43.983Z,20.7
2016-04-21T00:10:42.283Z,20.7
2016-04-21T00:11:40.566Z,20.7
2016-04-21T00:12:38.850Z,20.7
2016-04-21T00:13:37.260Z,20.7
2016-04-21T00:14:35.433Z,20.6
2016-04-21T00:15:33.718Z,20.7
2016-04-21T00:16:32.313Z,20.6
2016-04-21T00:17:33.457Z,20.6
2016-04-21T00:18:31.898Z,20.6
2016-04-21T00:19:30.416Z,20.6
2016-04-21T00:20:28.716Z,20.6
2016-04-21T00:21:27.281Z,20.6
2016-04-21T00:22:25.799Z,20.6
2016-04-21T00:23:24.364Z,20.5
2016-04-21T00:24:22.882Z,20.5
2016-04-21T00:25:21.431Z,20.5
2016-04-21T00:26:20.137Z,20.5
2016-04-21T00:27:21.047Z,20.5
2016-04-21T00:28:19.612Z,20.5
2016-04-21T00:29:18.131Z,20.5
2016-04-21T00:30:16.648Z,20.5
2016-04-21T00:31:15.448Z,20.5
2016-04-21T00:32:14.247Z,20.4
2016-04-21T00:33:13.047Z,20.4
2016-04-21T00:34:11.831Z,20.4
2016-04-21T00:35:10.630Z,20.4
2016-04-21T00:36:09.603Z,20.4
2016-04-21T00:37:10.511Z,20.4
2016-04-21T00:38:09.294Z,20.4
2016-04-21T00:39:08.095Z,20.4
2016-04-21T00:40:07.003Z,20.3
2016-04-21T00:41:05.709Z,20.4
2016-04-21T00:42:04.477Z,20.3
2016-04-21T00:43:03.277Z,20.3
2016-04-21T00:44:02.077Z,20.4
2016-04-21T00:45:00.892Z,20.4
2016-04-21T00:45:59.738Z,20.3
2016-04-21T00:47:00.757Z,20.3
2016-04-21T00:47:59.665Z,20.4
2016-04-21T00:48:58.449Z,20.3
2016-04-21T00:49:57.152Z,20.4
2016-04-21T00:50:55.937Z,20.4
2016-04-21T00:51:54.736Z,20.4
2016-04-21T00:52:53.536Z,20.4
2016-04-21T00:53:52.335Z,20.4
2016-04-21T00:54:51.229Z,20.4
2016-04-21T00:55:49.966Z,20.4
2016-04-21T00:56:50.984Z,20.4
2016-04-21T00:57:49.784Z,20.5
2016-04-21T00:58:48.567Z,20.5
2016-04-21T00:59:47.398Z,20.5
2016-04-21T01:00:46.167Z,20.5
2016-04-21T01:01:44.982Z,20.5
2016-04-21T01:02:43.875Z,20.5
2016-04-21T01:03:42.675Z,20.5
2016-04-21T01:04:41.380Z,20.5
2016-04-21T01:05:40.272Z,20.5
2016-04-21T01:06:41.337Z,20.5
2016-04-21T01:07:40.306Z,20.5
2016-04-21T01:08:39.025Z,20.5
2016-04-21T01:09:37.845Z,20.5
2016-04-21T01:10:36.662Z,20.5
2016-04-21T01:11:35.477Z,20.5
2016-04-21T01:12:34.278Z,20.5
2016-04-21T01:13:33.094Z,20.5
2016-04-21T01:14:31.937Z,20.4
2016-04-21T01:15:31.024Z,20.4
2016-04-21T01:16:32.172Z,20.4
2016-04-21T01:17:31.119Z,20.4
2016-04-21T01:18:30.174Z,20.4
2016-04-21T01:19:29.229Z,20.4
2016-04-21T01:20:28.390Z,20.4
2016-04-21T01:21:27.331Z,20.4
2016-04-21T01:22:26.373Z,20.3
2016-04-21T01:23:25.423Z,20.3
2016-04-21T01:24:24.491Z,20.3
2016-04-21T01:25:23.714Z,20.3
2016-04-21T01:26:24.607Z,20.3
2016-04-21T01:27:23.689Z,20.3
2016-04-21T01:28:22.708Z,20.3
2016-04-21T01:29:21.774Z,20.3
2016-04-21T01:30:20.823Z,20.3
2016-04-21T01:31:19.889Z,20.3
2016-04-21T01:32:19.048Z,20.2
2016-04-21T01:33:18.098Z,20.2
2016-04-21T01:34:17.023Z,20.3
2016-04-21T01:35:16.276Z,20.2
2016-04-21T01:36:17.185Z,20.2
2016-04-21T01:37:16.203Z,20.2
2016-04-21T01:38:15.629Z,20.2
2016-04-21T01:39:14.818Z,20.2
2016-04-21T01:40:14.134Z,20.2
2016-04-21T01:41:13.433Z,20.1
2016-04-21T01:42:12.748Z,20.1
2016-04-21T01:43:12.047Z,20.1
2016-04-21T01:44:11.487Z,20.1
2016-04-21T01:45:10.709Z,20.1
2016-04-21T01:46:11.759Z,20.1
2016-04-21T01:47:11.028Z,20.1
2016-04-21T01:48:10.342Z,20.1
2016-04-21T01:49:09.642Z,20.1
2016-04-21T01:50:08.957Z,20.1
2016-04-21T01:51:08.256Z,20.1
2016-04-21T01:52:07.556Z,20.1
2016-04-21T01:53:06.872Z,20.1
2016-04-21T01:54:06.172Z,20.1
2016-04-21T01:55:05.517Z,20.1
2016-04-21T01:56:06.552Z,20.1
2016-04-21T01:57:05.851Z,20.1
2016-04-21T01:58:05.166Z,20.1
2016-04-21T01:59:04.574Z,20.1
2016-04-21T02:00:03.890Z,20.1
2016-04-21T02:01:03.065Z,20.2
2016-04-21T02:02:02.380Z,20.2
2016-04-21T02:03:01.680Z,20.2
2016-04-21T02:04:01.104Z,20.2
2016-04-21T02:05:00.338Z,20.2
2016-04-21T02:06:01.500Z,20.2
2016-04-21T02:07:00.531Z,20.2
2016-04-21T02:07:59.472Z,20.2
2016-04-21T02:08:58.771Z,20.3
2016-04-21T02:09:58.196Z,20.3
2016-04-21T02:10:57.120Z,20.3
2016-04-21T02:11:56.185Z,20.3
2016-04-21T02:12:55.484Z,20.3
2016-04-21T02:13:54.785Z,20.3
2016-04-21T02:14:53.898Z,20.3
2016-04-21T02:15:54.915Z,20.3
2016-04-21T02:16:54.230Z,20.2
2016-04-21T02:17:53.530Z,20.2
2016-04-21T02:18:52.828Z,20.3
2016-04-21T02:19:52.128Z,20.3
2016-04-21T02:20:51.445Z,20.2
2016-04-21T02:21:50.744Z,20.2
2016-04-21T02:22:50.074Z,20.2
2016-04-21T02:23:49.358Z,20.2
2016-04-21T02:24:48.721Z,20.2
2016-04-21T02:25:49.864Z,20.2
2016-04-21T02:26:49.055Z,20.2
2016-04-21T02:27:48.463Z,20.2
2016-04-21T02:28:47.653Z,20.2
2016-04-21T02:29:47.078Z,20.2
2016-04-21T02:30:46.283Z,20.2
2016-04-21T02:31:45.568Z,20.2
2016-04-21T02:32:44.866Z,20.1
2016-04-21T02:33:44.323Z,20.1
2016-04-21T02:34:43.544Z,20.1
2016-04-21T02:35:44.703Z,20.1
2016-04-21T02:36:43.863Z,20.1
2016-04-21T02:37:43.162Z,20.1
2016-04-21T02:38:42.477Z,20.1
2016-04-21T02:39:41.777Z,20.1
2016-04-21T02:40:41.076Z,20.1
2016-04-21T02:41:40.391Z,20.1
2016-04-21T02:42:39.940Z,20.1
2016-04-21T02:43:39.240Z,20.1
2016-04-21T02:44:38.978Z,20
2016-04-21T02:45:39.886Z,20.1
2016-04-21T02:46:39.577Z,20
2016-04-21T02:47:39.001Z,20
2016-04-21T02:48:38.551Z,20
2016-04-21T02:49:38.116Z,20
2016-04-21T02:50:37.915Z,20
2016-04-21T02:51:37.856Z,19.9
2016-04-21T02:52:37.545Z,19.9
2016-04-21T02:53:37.345Z,19.9
2016-04-21T02:54:37.223Z,19.9
2016-04-21T02:55:38.241Z,19.9
2016-04-21T02:56:38.166Z,19.9
2016-04-21T02:57:37.871Z,19.9
2016-04-21T02:58:37.687Z,19.9
2016-04-21T02:59:37.486Z,19.9
2016-04-21T03:00:37.302Z,19.9
2016-04-21T03:01:37.242Z,19.9
2016-04-21T03:02:37.041Z,20
2016-04-21T03:03:36.857Z,20
2016-04-21T03:04:36.594Z,20
2016-04-21T03:05:37.627Z,20
2016-04-21T03:06:37.427Z,20
2016-04-21T03:07:37.242Z,20
2016-04-21T03:08:37.057Z,20.1
2016-04-21T03:09:36.874Z,20.1
2016-04-21T03:10:36.798Z,20.1
2016-04-21T03:11:36.504Z,20.1
2016-04-21T03:12:36.303Z,20.1
2016-04-21T03:13:36.118Z,20.1
2016-04-21T03:14:35.730Z,20.1
2016-04-21T03:15:36.748Z,20.1
2016-04-21T03:16:36.423Z,20.2
2016-04-21T03:17:35.878Z,20.2
2016-04-21T03:18:35.428Z,20.2
2016-04-21T03:19:34.978Z,20.2
2016-04-21T03:20:34.683Z,20.2
2016-04-21T03:21:34.097Z,20.2
2016-04-21T03:22:33.651Z,20.2
2016-04-21T03:23:33.216Z,20.2
2016-04-21T03:24:32.843Z,20.2
2016-04-21T03:25:33.956Z,20.2
2016-04-21T03:26:33.396Z,20.2
2016-04-21T03:27:32.961Z,20.2
2016-04-21T03:28:32.808Z,20.1
2016-04-21T03:29:32.717Z,20.1
2016-04-21T03:30:32.391Z,20.1
2016-04-21T03:31:32.206Z,20.1
2016-04-21T03:32:32.022Z,20.1
2016-04-21T03:33:31.821Z,20.1
2016-04-21T03:34:31.698Z,20.1
2016-04-21T03:35:32.701Z,20.1
2016-04-21T03:36:32.642Z,20.1
2016-04-21T03:37:32.348Z,20.1
2016-04-21T03:38:32.147Z,20.1
2016-04-21T03:39:31.947Z,20.1
2016-04-21T03:40:31.871Z,20.1
2016-04-21T03:41:31.561Z,20.1
2016-04-21T03:42:31.517Z,20.1
2016-04-21T03:43:31.302Z,20
2016-04-21T03:44:31.054Z,20.1
2016-04-21T03:45:32.197Z,20
2016-04-21T03:46:31.887Z,20
2016-04-21T03:47:31.703Z,20
2016-04-21T03:48:31.502Z,20
2016-04-21T03:49:31.583Z,20
2016-04-21T03:50:31.632Z,20
2016-04-21T03:51:31.698Z,20
2016-04-21T03:52:31.762Z,20
2016-04-21T03:53:31.938Z,19.9
2016-04-21T03:54:32.049Z,19.9
2016-04-21T03:55:32.959Z,19.9
2016-04-21T03:56:33.133Z,19.9
2016-04-21T03:57:33.198Z,19.9
2016-04-21T03:58:33.154Z,19.9
2016-04-21T03:59:33.344Z,19.9
2016-04-21T04:00:33.268Z,19.9
2016-04-21T04:01:33.350Z,19.9
2016-04-21T04:02:33.431Z,19.9
2016-04-21T04:03:33.464Z,19.9
2016-04-21T04:04:33.592Z,19.9
2016-04-21T04:05:34.595Z,19.9
2016-04-21T04:06:34.675Z,19.9
2016-04-21T04:07:34.741Z,20
2016-04-21T04:08:34.789Z,20
2016-04-21T04:09:34.965Z,20
2016-04-21T04:10:34.920Z,20
2016-04-21T04:11:34.986Z,20
2016-04-21T04:12:35.035Z,20
2016-04-21T04:13:34.850Z,20
2016-04-21T04:14:34.727Z,20
2016-04-21T04:15:35.871Z,20.1
2016-04-21T04:16:35.546Z,20.1
2016-04-21T04:17:35.471Z,20.1
2016-04-21T04:18:35.161Z,20.1
2016-04-21T04:19:34.976Z,20.1
2016-04-21T04:20:34.791Z,20.1
2016-04-21T04:21:34.732Z,20.1
2016-04-21T04:22:34.407Z,20.1
2016-04-21T04:23:34.221Z,20.1
2016-04-21T04:24:34.099Z,20.1
2016-04-21T04:25:35.101Z,20.1
2016-04-21T04:26:34.917Z,20.1
2016-04-21T04:27:34.748Z,20.1
2016-04-21T04:28:34.531Z,20.1
2016-04-21T04:29:34.347Z,20.1
2016-04-21T04:30:34.271Z,20.1
2016-04-21T04:31:34.087Z,20.1
2016-04-21T04:32:33.776Z,20.1
2016-04-21T04:33:33.842Z,20.1
2016-04-21T04:34:33.969Z,20.1
2016-04-21T04:35:35.098Z,20.1
2016-04-21T04:36:35.178Z,20.1
2016-04-21T04:37:35.103Z,20.1
2016-04-21T04:38:35.200Z,20.1
2016-04-21T04:39:35.358Z,20.1
2016-04-21T04:40:35.314Z,20.1
2016-04-21T04:41:35.363Z,20
2016-04-21T04:42:35.428Z,20
2016-04-21T04:43:35.494Z,20
2016-04-21T04:44:35.856Z,20
2016-04-21T04:45:36.999Z,20
2016-04-21T04:46:36.939Z,20
2016-04-21T04:47:37.129Z,20
2016-04-21T04:48:37.070Z,19.9
2016-04-21T04:49:37.385Z,19.9
2016-04-21T04:50:37.450Z,20
2016-04-21T04:51:37.765Z,19.9
2016-04-21T04:52:38.096Z,19.9
2016-04-21T04:53:38.411Z,19.9
2016-04-21T04:54:38.774Z,19.9
2016-04-21T04:55:39.808Z,19.9
2016-04-21T04:56:40.123Z,19.9
2016-04-21T04:57:40.422Z,19.9
2016-04-21T04:58:40.737Z,19.9
2016-04-21T04:59:41.068Z,19.9
2016-04-21T05:00:41.383Z,19.9
2016-04-21T05:01:41.808Z,19.9
2016-04-21T05:02:42.154Z,19.9
2016-04-21T05:03:42.329Z,19.9
2016-04-21T05:04:42.690Z,19.9
2016-04-21T05:05:43.834Z,19.9
2016-04-21T05:06:44.289Z,19.8
2016-04-21T05:07:44.855Z,19.9
2016-04-21T05:08:45.437Z,19.9
2016-04-21T05:09:46.017Z,19.9
2016-04-21T05:10:46.582Z,19.9
2016-04-21T05:11:47.256Z,19.9
2016-04-21T05:12:47.712Z,19.9
2016-04-21T05:13:48.152Z,19.9
2016-04-21T05:14:48.671Z,20
2016-04-21T05:15:49.674Z,19.9
2016-04-21T05:16:50.005Z,20
2016-04-21T05:17:50.429Z,20
2016-04-21T05:18:50.650Z,20
2016-04-21T05:19:50.950Z,20
2016-04-21T05:20:51.281Z,20.1
2016-04-21T05:21:51.580Z,20.1
2016-04-21T05:22:51.896Z,20.1
2016-04-21T05:23:52.210Z,20.1
2016-04-21T05:24:52.588Z,20.1
2016-04-21T05:25:53.732Z,20.1
2016-04-21T05:26:53.921Z,20.1
2016-04-21T05:27:54.362Z,20.1
2016-04-21T05:28:54.568Z,20.1
2016-04-21T05:29:54.883Z,20.1
2016-04-21T05:30:55.199Z,20.1
2016-04-21T05:31:55.513Z,20.2
2016-04-21T05:32:55.833Z,20.2
2016-04-21T05:33:56.259Z,20.2
2016-04-21T05:34:56.512Z,20.2
2016-04-21T05:35:57.654Z,20.2
2016-04-21T05:36:57.859Z,20.2
2016-04-21T05:37:58.165Z,20.2
2016-04-21T05:38:58.481Z,20.2
2016-04-21T05:39:58.796Z,20.2
2016-04-21T05:40:59.112Z,20.2
2016-04-21T05:41:59.426Z,20.2
2016-04-21T05:42:59.741Z,20.2
2016-04-21T05:44:00.088Z,20.2
2016-04-21T05:45:00.434Z,20.2
2016-04-21T05:46:01.452Z,20.3
2016-04-21T05:47:01.768Z,20.3
2016-04-21T05:48:02.083Z,20.3
2016-04-21T05:49:02.398Z,20.3
2016-04-21T05:50:02.714Z,20.3
2016-04-21T05:51:03.044Z,20.4
2016-04-21T05:52:03.469Z,20.4
2016-04-21T05:53:03.408Z,20.5
2016-04-21T05:54:03.490Z,20.5
2016-04-21T05:55:03.711Z,20.5
2016-04-21T05:56:04.604Z,20.5
2016-04-21T05:57:04.670Z,20.6
2016-04-21T05:58:04.860Z,20.6
2016-04-21T05:59:04.909Z,20.6
2016-04-21T06:00:04.616Z,20.7
2016-04-21T06:01:04.415Z,20.7
2016-04-21T06:02:04.340Z,20.7
2016-04-21T06:03:04.030Z,20.7
2016-04-21T06:04:03.860Z,20.8
2016-04-21T06:05:03.723Z,20.8
2016-04-21T06:06:04.882Z,20.8
2016-04-21T06:07:04.681Z,20.9
2016-04-21T06:08:04.465Z,20.9
2016-04-21T06:09:04.154Z,20.9
2016-04-21T06:10:03.970Z,21.1
2016-04-21T06:11:03.770Z,21
2016-04-21T06:12:03.585Z,21.1
2016-04-21T06:13:03.384Z,21.2
2016-04-21T06:14:02.934Z,21.2
2016-04-21T06:15:02.578Z,21.3
2016-04-21T06:16:03.596Z,21.3
2016-04-21T06:17:03.395Z,21.3
2016-04-21T06:18:02.929Z,21.4
2016-04-21T06:19:02.479Z,21.5
2016-04-21T06:20:02.153Z,21.5
2016-04-21T06:21:01.625Z,21.6
2016-04-21T06:22:01.268Z,21.7
2016-04-21T06:23:00.708Z,21.7
2016-04-21T06:24:00.289Z,21.7
2016-04-21T06:24:59.869Z,21.7
2016-04-21T06:26:01.013Z,21.8
2016-04-21T06:27:00.563Z,21.9
2016-04-21T06:28:00.113Z,21.9
2016-04-21T06:28:59.552Z,22
2016-04-21T06:29:59.227Z,22
2016-04-21T06:30:58.652Z,22.1
2016-04-21T06:31:58.217Z,22.1
2016-04-21T06:32:57.877Z,22.1
2016-04-21T06:33:57.066Z,22.1
2016-04-21T06:34:56.429Z,22.2
2016-04-21T06:35:57.446Z,22.3
2016-04-21T06:36:56.746Z,22.3
2016-04-21T06:37:56.030Z,22.3
2016-04-21T06:38:55.205Z,22.4
2016-04-21T06:39:54.254Z,22.4
2016-04-21T06:40:52.929Z,22.4
2016-04-21T06:41:51.744Z,22.5
2016-04-21T06:42:50.293Z,22.5
2016-04-21T06:43:48.842Z,22.5
2016-04-21T06:44:47.174Z,22.6
2016-04-21T06:45:48.192Z,22.6
2016-04-21T06:46:46.476Z,22.7
2016-04-21T06:47:44.870Z,22.7
2016-04-21T06:48:42.779Z,22.7
2016-04-21T06:49:40.922Z,22.7
2016-04-21T06:50:38.706Z,22.8
2016-04-21T06:51:36.506Z,22.8
2016-04-21T06:52:34.148Z,22.9
2016-04-21T06:53:31.948Z,22.9
2016-04-21T06:54:29.889Z,22.9
2016-04-21T06:55:30.891Z,22.9
2016-04-21T06:56:28.550Z,22.9
2016-04-21T06:57:26.334Z,23
2016-04-21T06:58:24.102Z,23.1
2016-04-21T06:59:21.886Z,23.1
2016-04-21T07:00:19.652Z,23.1
2016-04-21T07:01:17.452Z,23.1
2016-04-21T07:02:19.016Z,23.1
2016-04-21T07:03:20.600Z,23.1
2016-04-21T07:04:22.274Z,23.2
2016-04-21T07:05:23.262Z,23.2
2016-04-21T07:06:24.827Z,23.3
2016-04-21T07:07:26.423Z,23.3
2016-04-21T07:08:27.848Z,23.3
2016-04-21T07:09:29.194Z,23.4
2016-04-21T07:10:30.415Z,23.4
2016-04-21T07:11:31.840Z,23.4
2016-04-21T07:12:33.031Z,23.5
2016-04-21T07:13:34.377Z,23.5
2016-04-21T07:14:35.739Z,23.5
2016-04-21T07:15:36.867Z,23.5
2016-04-21T07:16:38.212Z,23.6
2016-04-21T07:17:39.387Z,23.7
2016-04-21T07:18:40.578Z,23.6
2016-04-21T07:19:41.549Z,23.7
2016-04-21T07:20:42.724Z,23.7
2016-04-21T07:21:43.711Z,23.7
2016-04-21T07:22:44.760Z,23.7
2016-04-21T07:23:45.576Z,23.8
2016-04-21T07:24:46.439Z,23.8
2016-04-21T07:25:47.456Z,23.9
2016-04-21T07:26:48.272Z,23.9
2016-04-21T07:27:49.087Z,23.9
2016-04-21T07:28:49.902Z,23.9
2016-04-21T07:29:50.733Z,24
2016-04-21T07:30:51.532Z,24.1
2016-04-21T07:31:52.347Z,24.1
2016-04-21T07:32:53.178Z,24.1
2016-04-21T07:33:54.102Z,24.1
2016-04-21T07:34:54.855Z,24.2
2016-04-21T07:35:55.888Z,24.2
2016-04-21T07:36:56.438Z,24.3
2016-04-21T07:37:57.114Z,24.3
2016-04-21T07:38:57.616Z,24.3
2016-04-21T07:39:58.118Z,24.4
2016-04-21T07:40:58.810Z,24.4
2016-04-21T07:41:59.249Z,24.5
2016-04-21T07:42:59.596Z,24.5
2016-04-21T07:43:59.865Z,24.5
2016-04-21T07:45:00.226Z,24.6
2016-04-21T07:46:01.245Z,24.7
2016-04-21T07:47:01.543Z,24.7
2016-04-21T07:48:01.859Z,24.7
2016-04-21T07:49:02.174Z,24.8
2016-04-21T07:50:02.239Z,24.8
2016-04-21T07:51:02.398Z,24.9
2016-04-21T07:52:02.495Z,24.9
2016-04-21T07:53:02.342Z,24.9
2016-04-21T07:54:02.219Z,24.9
2016-04-21T07:55:02.050Z,25
2016-04-21T07:56:03.068Z,25
2016-04-21T07:57:02.883Z,25.1
2016-04-21T07:58:02.792Z,25.1
2016-04-21T07:59:02.514Z,25.1
2016-04-21T08:00:02.266Z,25.2
2016-04-21T08:01:02.081Z,25.2
2016-04-21T08:02:01.990Z,25.2
2016-04-21T08:03:01.666Z,25.3
2016-04-21T08:04:01.589Z,25.3
2016-04-21T08:05:01.435Z,25.3
2016-04-21T08:06:02.345Z,25.3
2016-04-21T08:07:02.129Z,25.3
2016-04-21T08:08:02.054Z,25.4
2016-04-21T08:09:01.853Z,25.4
2016-04-21T08:10:01.652Z,25.4
2016-04-21T08:11:01.483Z,25.4
2016-04-21T08:12:01.157Z,25.4
2016-04-21T08:13:00.942Z,25.4
2016-04-21T08:14:00.851Z,25.4
2016-04-21T08:15:00.604Z,25.4
2016-04-21T08:16:01.607Z,25.5
2016-04-21T08:17:01.406Z,25.4
2016-04-21T08:18:01.206Z,25.5
2016-04-21T08:19:01.004Z,25.5
2016-04-21T08:20:00.805Z,25.5
2016-04-21T08:21:00.604Z,25.5
2016-04-21T08:22:00.263Z,25.5
2016-04-21T08:22:59.687Z,25.5
2016-04-21T08:23:59.236Z,25.5
2016-04-21T08:24:58.959Z,25.5
2016-04-21T08:25:59.852Z,25.6
2016-04-21T08:26:59.136Z,25.6
2016-04-21T08:27:58.685Z,25.6
2016-04-21T08:28:57.970Z,25.6
2016-04-21T08:29:57.253Z,25.7
2016-04-21T08:30:56.036Z,25.7
2016-04-21T08:31:54.322Z,25.7
2016-04-21T08:32:52.480Z,25.6
2016-04-21T08:33:54.045Z,25.6
2016-04-21T08:34:55.298Z,25.6
2016-04-21T08:35:56.316Z,25.5
2016-04-21T08:36:57.366Z,25.6
2016-04-21T08:37:58.180Z,25.5
2016-04-21T08:38:58.996Z,25.5
2016-04-21T08:39:59.827Z,25.4
2016-04-21T08:41:00.626Z,25.4
2016-04-21T08:42:01.442Z,25.4
2016-04-21T08:43:02.241Z,25.3
2016-04-21T08:44:03.057Z,25.3
2016-04-21T08:45:03.669Z,25.3
2016-04-21T08:46:04.671Z,25.3
2016-04-21T08:47:05.095Z,25.2
2016-04-21T08:48:05.162Z,25.1
2016-04-21T08:49:05.086Z,25.1
2016-04-21T08:50:05.120Z,25
2016-04-21T08:51:05.044Z,24.9
2016-04-21T08:52:04.723Z,24.9
2016-04-21T08:53:04.648Z,24.8
2016-04-21T08:54:04.323Z,24.7
2016-04-21T08:55:04.216Z,24.6
2016-04-21T08:56:05.187Z,24.5
2016-04-21T08:57:04.986Z,24.5
2016-04-21T08:58:04.942Z,24.5
2016-04-21T08:59:04.961Z,24.4
2016-04-21T09:00:05.026Z,24.3
2016-04-21T09:01:04.982Z,24.3
2016-04-21T09:02:05.251Z,24.3
2016-04-21T09:03:05.550Z,24.2
2016-04-21T09:04:05.927Z,24.1
2016-04-21T09:05:06.227Z,24.1
2016-04-21T09:06:07.246Z,24
2016-04-21T09:07:07.671Z,24
2016-04-21T09:08:07.954Z,23.9
2016-04-21T09:09:08.144Z,23.8
2016-04-21T09:10:08.460Z,23.8
2016-04-21T09:11:08.884Z,23.8
2016-04-21T09:12:09.059Z,23.7
2016-04-21T09:13:09.107Z,23.7
2016-04-21T09:14:09.174Z,23.6
2016-04-21T09:15:09.286Z,23.6
2016-04-21T09:16:10.320Z,23.5
2016-04-21T09:17:10.603Z,23.5
2016-04-21T09:18:11.028Z,23.4
2016-04-21T09:19:11.217Z,23.4
2016-04-21T09:20:11.534Z,23.4
2016-04-21T09:21:11.848Z,23.3
2016-04-21T09:22:12.273Z,23.3
2016-04-21T09:23:12.713Z,23.3
2016-04-21T09:24:13.044Z,23.3
2016-04-21T09:25:13.390Z,23.3
2016-04-21T09:26:14.393Z,23.3
2016-04-21T09:27:14.834Z,23.2
2016-04-21T09:28:15.149Z,23.1
2016-04-21T09:29:15.323Z,23.1
2016-04-21T09:30:15.639Z,23.1
2016-04-21T09:31:15.938Z,23.1
2016-04-21T09:32:16.269Z,23
2016-04-21T09:33:16.568Z,22.9
2016-04-21T09:34:16.883Z,22.9
2016-04-21T09:35:17.261Z,22.9
2016-04-21T09:36:18.374Z,22.9
2016-04-21T09:37:18.813Z,22.8
2016-04-21T09:38:19.504Z,22.8
2016-04-21T09:39:19.693Z,22.8
2016-04-21T09:40:20.025Z,22.7
2016-04-21T09:41:20.558Z,22.7
2016-04-21T09:42:21.155Z,22.7
2016-04-21T09:43:21.938Z,22.7
2016-04-21T09:44:22.770Z,22.6
2016-04-21T09:45:24.023Z,22.6
2016-04-21T09:46:24.915Z,22.6
2016-04-21T09:47:25.981Z,22.5
2016-04-21T09:48:26.796Z,22.6
2016-04-21T09:49:27.876Z,22.5
2016-04-21T09:50:28.976Z,22.5
2016-04-21T09:51:30.009Z,22.5
2016-04-21T09:52:31.326Z,22.4
2016-04-21T09:53:32.687Z,22.4
2016-04-21T09:54:33.987Z,22.4
2016-04-21T09:55:35.599Z,22.3
2016-04-21T09:56:36.633Z,22.3
2016-04-21T09:57:34.511Z,22.3
2016-04-21T09:58:32.794Z,22.3
2016-04-21T09:59:30.985Z,22.3
2016-04-21T10:00:29.237Z,22.3
2016-04-21T10:01:27.894Z,22.3
2016-04-21T10:02:26.569Z,22.2
2016-04-21T10:03:25.353Z,22.2
2016-04-21T10:04:24.136Z,22.2
2016-04-21T10:05:22.997Z,22.2
2016-04-21T10:06:24.016Z,22.2
2016-04-21T10:07:23.175Z,22.2
2016-04-21T10:08:22.210Z,22.2
2016-04-21T10:09:21.274Z,22.2
2016-04-21T10:10:20.558Z,22.1
2016-04-21T10:11:19.906Z,22.1
2016-04-21T10:12:19.109Z,22.1
2016-04-21T10:13:18.452Z,22.1
2016-04-21T10:14:17.921Z,22.1
2016-04-21T10:15:17.202Z,22.1
2016-04-21T10:16:18.228Z,22.1
2016-04-21T10:17:17.560Z,22.1
2016-04-21T10:18:16.859Z,22.1
2016-04-21T10:19:16.300Z,22.1
2016-04-21T10:20:15.866Z,22.1
2016-04-21T10:21:15.329Z,22
2016-04-21T10:22:14.868Z,22
2016-04-21T10:23:14.441Z,22
2016-04-21T10:24:14.261Z,22
2016-04-21T10:25:14.222Z,22
2016-04-21T10:26:15.119Z,22
2016-04-21T10:27:14.935Z,22
2016-04-21T10:28:14.987Z,22
2016-04-21T10:29:15.164Z,21.9
2016-04-21T10:30:15.091Z,21.9
2016-04-21T10:31:15.407Z,21.9
2016-04-21T10:32:15.723Z,21.9
2016-04-21T10:33:16.148Z,21.9
2016-04-21T10:34:16.463Z,21.9
2016-04-21T10:35:16.717Z,21.9
2016-04-21T10:36:17.736Z,21.9
2016-04-21T10:37:18.411Z,21.8
2016-04-21T10:38:18.884Z,21.9
2016-04-21T10:39:19.417Z,21.8
2016-04-21T10:40:20.357Z,21.8
2016-04-21T10:41:21.063Z,21.8
2016-04-21T10:42:21.879Z,21.8
2016-04-21T10:43:22.694Z,21.8
2016-04-21T10:44:23.509Z,21.8
2016-04-21T10:45:24.653Z,21.8
2016-04-21T10:46:25.671Z,21.8
2016-04-21T10:47:26.986Z,21.7
2016-04-21T10:48:28.318Z,21.8
2016-04-21T10:49:29.789Z,21.7
2016-04-21T10:50:31.088Z,21.7
2016-04-21T10:51:32.420Z,21.7
2016-04-21T10:52:33.890Z,21.7
2016-04-21T10:53:35.456Z,21.7
2016-04-21T10:54:37.164Z,21.7
2016-04-21T10:55:38.792Z,21.7
2016-04-21T10:56:39.716Z,21.7
2016-04-21T10:57:37.469Z,21.7
2016-04-21T10:58:35.359Z,21.7
2016-04-21T10:59:33.034Z,21.7
2016-04-21T11:00:30.802Z,21.7
2016-04-21T11:01:28.586Z,21.7
2016-04-21T11:02:26.355Z,21.7
2016-04-21T11:03:24.155Z,21.7
2016-04-21T11:04:21.922Z,21.7
2016-04-21T11:05:19.753Z,21.7
2016-04-21T11:06:20.881Z,21.7
2016-04-21T11:07:18.556Z,21.7
2016-04-21T11:08:16.324Z,21.7
2016-04-21T11:09:14.358Z,21.7
2016-04-21T11:10:12.516Z,21.6
2016-04-21T11:11:10.426Z,21.7
2016-04-21T11:12:08.476Z,21.6
2016-04-21T11:13:06.494Z,21.6
2016-04-21T11:14:04.652Z,21.7
2016-04-21T11:15:02.734Z,21.6
2016-04-21T11:16:03.627Z,21.6
2016-04-21T11:17:01.661Z,21.6
2016-04-21T11:17:59.959Z,21.6
2016-04-21T11:18:58.353Z,21.6
2016-04-21T11:19:56.528Z,21.6
2016-04-21T11:20:54.796Z,21.5
2016-04-21T11:21:53.111Z,21.6
2016-04-21T11:22:51.381Z,21.6
2016-04-21T11:23:49.789Z,21.6
2016-04-21T11:24:47.995Z,21.5
2016-04-21T11:25:49.013Z,21.5
2016-04-21T11:26:47.312Z,21.5
2016-04-21T11:27:45.581Z,21.5
2016-04-21T11:28:43.990Z,21.5
2016-04-21T11:29:42.164Z,21.5
2016-04-21T11:30:40.448Z,21.5
2016-04-21T11:31:38.732Z,21.5
2016-04-21T11:32:37.029Z,21.4
2016-04-21T11:33:35.297Z,21.5
2016-04-21T11:34:33.660Z,21.4
2016-04-21T11:35:34.663Z,21.4
2016-04-21T11:36:32.946Z,21.4
2016-04-21T11:37:31.355Z,21.4
2016-04-21T11:38:29.513Z,21.4
2016-04-21T11:39:27.923Z,21.4
2016-04-21T11:40:26.097Z,21.4
2016-04-21T11:41:24.382Z,21.4
2016-04-21T11:42:22.775Z,21.4
2016-04-21T11:43:20.965Z,21.4
2016-04-21T11:44:19.421Z,21.3
2016-04-21T11:45:20.315Z,21.3
2016-04-21T11:46:18.599Z,21.4
2016-04-21T11:47:16.882Z,21.3
2016-04-21T11:48:15.165Z,21.3
2016-04-21T11:49:13.465Z,21.3
2016-04-21T11:50:11.749Z,21.3
2016-04-21T11:51:10.034Z,21.3
2016-04-21T11:52:08.459Z,21.3
2016-04-21T11:53:06.726Z,21.3
2016-04-21T11:54:04.947Z,21.3
2016-04-21T11:55:05.966Z,21.3
2016-04-21T11:56:04.250Z,21.3
2016-04-21T11:57:02.534Z,21.3
2016-04-21T11:58:00.943Z,21.2
2016-04-21T11:58:59.102Z,21.2
2016-04-21T11:59:57.386Z,21.3
2016-04-21T12:00:55.685Z,21.2
2016-04-21T12:01:53.969Z,21.2
2016-04-21T12:02:52.253Z,21.2
2016-04-21T12:03:50.709Z,21.2
2016-04-21T12:04:51.619Z,21.2
2016-04-21T12:05:49.902Z,21.2
2016-04-21T12:06:48.311Z,21.2
2016-04-21T12:07:46.485Z,21.1
2016-04-21T12:08:44.879Z,21.1
2016-04-21T12:09:43.053Z,21.1
2016-04-21T12:10:41.337Z,21.1
2016-04-21T12:11:39.746Z,21.1
2016-04-21T12:12:37.902Z,21.1
2016-04-21T12:13:36.249Z,21.1
2016-04-21T12:14:37.282Z,21.1
2016-04-21T12:15:35.691Z,21.1
2016-04-21T12:16:33.851Z,21.1
2016-04-21T12:17:32.135Z,21
2016-04-21T12:18:30.418Z,21.1
2016-04-21T12:19:28.702Z,21.1
2016-04-21T12:20:27.126Z,21
2016-04-21T12:21:25.286Z,21
2016-04-21T12:22:23.570Z,21.1
2016-04-21T12:23:21.916Z,21
2016-04-21T12:24:22.951Z,21
2016-04-21T12:25:21.234Z,21
2016-04-21T12:26:19.643Z,21
2016-04-21T12:27:17.802Z,21
2016-04-21T12:28:16.102Z,21
2016-04-21T12:29:14.386Z,21
2016-04-21T12:30:12.669Z,21
2016-04-21T12:31:10.953Z,21
2016-04-21T12:32:09.253Z,20.9
2016-04-21T12:33:07.709Z,20.9
2016-04-21T12:34:08.727Z,20.9
2016-04-21T12:35:06.902Z,20.9
2016-04-21T12:36:05.310Z,20.9
2016-04-21T12:37:03.469Z,20.9
2016-04-21T12:38:01.878Z,20.9
2016-04-21T12:39:00.053Z,20.9
2016-04-21T12:39:58.368Z,20.9
2016-04-21T12:40:56.746Z,20.9
2016-04-21T12:41:54.921Z,20.8
2016-04-21T12:42:53.267Z,20.9
2016-04-21T12:43:54.269Z,20.9
2016-04-21T12:44:52.554Z,20.9
2016-04-21T12:45:50.853Z,20.9
2016-04-21T12:46:49.137Z,20.8
2016-04-21T12:47:47.421Z,20.8
2016-04-21T12:48:45.704Z,20.9
2016-04-21T12:49:44.005Z,20.8
2016-04-21T12:50:42.288Z,20.8
2016-04-21T12:51:40.570Z,20.9
2016-04-21T12:52:38.916Z,20.8
2016-04-21T12:53:40.060Z,20.8
2016-04-21T12:54:38.218Z,20.8
2016-04-21T12:55:36.518Z,20.8
2016-04-21T12:56:34.911Z,20.8
2016-04-21T12:57:33.086Z,20.8
2016-04-21T12:58:31.370Z,20.8
2016-04-21T12:59:29.639Z,20.7
2016-04-21T13:00:27.938Z,20.8
2016-04-21T13:01:26.347Z,20.8
2016-04-21T13:02:24.584Z,20.8
2016-04-21T13:03:25.603Z,20.8
2016-04-21T13:04:24.136Z,20.8
2016-04-21T13:05:22.669Z,20.7
2016-04-21T13:06:21.219Z,20.8
2016-04-21T13:07:19.738Z,20.7
2016-04-21T13:08:18.288Z,20.7
2016-04-21T13:09:16.821Z,20.7
2016-04-21T13:10:15.371Z,20.7
2016-04-21T13:11:13.905Z,20.7
2016-04-21T13:12:12.502Z,20.7
2016-04-21T13:13:13.519Z,20.7
2016-04-21T13:14:12.068Z,20.7
2016-04-21T13:15:10.603Z,20.7
2016-04-21T13:16:09.152Z,20.7
2016-04-21T13:17:07.687Z,20.7
2016-04-21T13:18:06.236Z,20.7
2016-04-21T13:19:04.770Z,20.7